Time;durP1;ratioP1;P1;durP2;ratioP2;P2;SDS_P1;SDS_P2;PMS_P1;PMS_P2;Temp;Humidity;BMP_temperature;BMP_pressure;BME280_temperature;BME280_humidity;BME280_pressure;Samples;Min_cycle;Max_cycle;Signal;HPM_P1;HPM_P2
2022/06/17 00:01:55;;;;;;;3.92;1.40;;;;;;;14.70;57.34;97981.63;5067303;28;20040;-65
2022/06/17 00:04:21;;;;;;;2.80;1.42;;;;;;;14.73;57.32;97986.56;5067195;28;20056;-66
2022/06/17 00:06:58;;;;;;;3.83;1.48;;;;;;;14.56;58.60;97973.94;5067941;28;20046;-65
2022/06/17 00:09:27;;;;;;;2.85;1.50;;;;;;;14.43;58.88;97988.03;5067264;28;20173;-65
2022/06/17 00:11:53;;;;;;;5.10;1.73;;;;;;;14.43;58.18;97990.75;5066389;28;20427;-66
2022/06/17 00:14:31;;;;;;;4.72;1.55;;;;;;;14.54;58.02;97994.34;5063860;28;20044;-66
2022/06/17 00:17:07;;;;;;;3.17;1.60;;;;;;;14.54;58.18;97994.34;5064918;28;20086;-66
2022/06/17 00:19:33;;;;;;;2.97;1.40;;;;;;;14.51;58.02;97995.72;5065855;28;20139;-65
2022/06/17 00:22:00;;;;;;;4.57;1.70;;;;;;;14.48;58.55;97998.16;5066318;28;20045;-65
2022/06/17 00:24:31;;;;;;;2.97;1.58;;;;;;;14.35;58.99;97999.41;5067789;28;20044;-65
2022/06/17 00:26:58;;;;;;;7.47;2.00;;;;;;;14.26;59.30;98002.59;5066832;28;20504;-66
2022/06/17 00:29:29;;;;;;;3.17;1.80;;;;;;;14.32;58.81;98003.47;5067479;28;20049;-65
2022/06/17 00:31:59;;;;;;;3.77;1.60;;;;;;;14.10;59.95;98012.56;5067490;28;20044;-65
2022/06/17 00:34:26;;;;;;;2.85;1.65;;;;;;;13.96;60.34;97998.56;5067045;28;20050;-65
2022/06/17 00:36:59;;;;;;;5.13;1.90;;;;;;;13.94;60.25;97999.88;5066124;28;20039;-66
2022/06/17 00:39:28;;;;;;;3.65;1.52;;;;;;;13.95;60.40;98004.25;5066667;28;20044;-65
2022/06/17 00:42:03;;;;;;;2.78;1.38;;;;;;;13.88;60.90;98004.47;5066383;28;20040;-65
2022/06/17 00:44:40;;;;;;;4.38;1.60;;;;;;;13.79;61.19;98007.66;5067167;28;20102;-66
2022/06/17 00:47:17;;;;;;;3.92;1.70;;;;;;;13.71;61.35;98004.59;5066942;28;20051;-66
2022/06/17 00:49:49;;;;;;;3.22;2.00;;;;;;;13.49;62.43;98010.91;5067396;28;20123;-66
2022/06/17 00:52:25;;;;;;;6.28;3.38;;;;;;;13.32;63.37;98010.94;5064623;28;20040;-65
2022/06/17 00:54:56;;;;;;;5.97;2.63;;;;;;;13.14;64.03;98007.47;5065258;28;20048;-65
2022/06/17 00:57:34;;;;;;;3.58;1.95;;;;;;;13.20;64.02;98008.34;5066372;28;20049;-65
2022/06/17 01:00:15;;;;;;;4.28;2.03;;;;;;;13.34;63.58;98012.31;5066358;28;20051;-66
2022/06/17 01:02:47;;;;;;;5.45;1.60;;;;;;;13.39;63.58;98017.81;5066420;28;20036;-66
2022/06/17 01:05:16;;;;;;;3.13;1.60;;;;;;;13.29;64.00;98020.41;5065929;28;20131;-65
2022/06/17 01:07:53;;;;;;;2.42;1.58;;;;;;;12.94;65.47;98013.47;5066610;28;20406;-65
2022/06/17 01:10:20;;;;;;;4.63;1.40;;;;;;;12.97;65.08;98021.13;5045222;28;20041;-65
2022/06/17 01:12:56;;;;;;;4.43;1.73;;;;;;;12.78;66.10;98013.25;5046536;28;20033;-65
2022/06/17 01:15:26;;;;;;;3.38;1.73;;;;;;;12.70;66.74;98013.69;5064486;28;20132;-65
2022/06/17 01:17:56;;;;;;;4.85;1.80;;;;;;;12.77;66.32;98013.50;5066795;28;20542;-65
2022/06/17 01:20:25;;;;;;;4.05;1.63;;;;;;;12.78;66.57;98009.72;5065307;28;20499;-65
2022/06/17 01:22:58;;;;;;;6.05;1.95;;;;;;;12.62;66.85;98004.06;5067898;28;20047;-65
2022/06/17 01:25:50;;;;;;;3.22;1.92;;;;;;;12.62;67.15;97995.91;5069325;28;20044;-66
2022/06/17 01:28:17;;;;;;;3.83;1.75;;;;;;;12.63;66.91;97997.56;5070457;28;20060;-66
2022/06/17 01:30:47;;;;;;;3.97;2.00;;;;;;;12.80;66.38;97993.97;5062534;28;20086;-66
2022/06/17 01:33:46;;;;;;;4.47;2.00;;;;;;;12.70;66.91;97990.06;5068825;28;20112;-65
2022/06/17 01:36:27;;;;;;;5.30;1.98;;;;;;;12.61;67.40;97989.66;5069048;28;20063;-65
2022/06/17 01:38:58;;;;;;;3.13;1.60;;;;;;;12.49;68.12;97989.75;5068330;28;20055;-65
2022/06/17 01:41:28;;;;;;;3.58;1.77;;;;;;;12.38;68.41;97989.88;5070058;28;20048;-65
2022/06/17 01:44:00;;;;;;;3.35;1.83;;;;;;;12.33;68.63;97991.44;5070060;28;20098;-65
2022/06/17 01:46:34;;;;;;;3.83;1.77;;;;;;;12.33;69.07;97999.56;5069132;28;20048;-65
2022/06/17 01:49:05;;;;;;;2.97;1.80;;;;;;;12.29;69.33;97993.00;5066264;28;20068;-65
2022/06/17 01:51:34;;;;;;;5.17;1.93;;;;;;;12.28;69.17;97996.78;5068802;28;20050;-65
2022/06/17 01:54:07;;;;;;;3.53;1.95;;;;;;;12.21;70.04;97996.13;5068840;28;20067;-65
2022/06/17 01:56:37;;;;;;;3.22;1.67;;;;;;;12.33;69.06;97991.44;5068443;28;20401;-66
2022/06/17 01:59:11;;;;;;;6.30;2.15;;;;;;;12.42;69.04;97993.72;5068196;28;20047;-65
2022/06/17 02:01:42;;;;;;;3.08;1.95;;;;;;;12.45;68.59;97990.50;5068514;28;20135;-65
2022/06/17 02:04:12;;;;;;;3.92;2.00;;;;;;;12.38;69.09;97995.28;5069260;28;20040;-65
2022/06/17 02:07:07;;;;;;;3.47;2.22;;;;;;;12.38;69.13;97992.59;5066540;28;20051;-66
2022/06/17 02:09:34;;;;;;;4.10;1.90;;;;;;;12.43;68.84;97998.09;5069168;28;20058;-65
2022/06/17 02:12:01;;;;;;;2.95;1.67;;;;;;;12.33;69.18;97991.44;5069528;28;20076;-65
2022/06/17 02:14:29;;;;;;;3.83;1.98;;;;;;;12.41;69.12;98000.22;5068350;28;20064;-64
2022/06/17 02:17:17;;;;;;;4.50;2.17;;;;;;;12.36;69.51;98000.97;5069676;28;20105;-64
2022/06/17 02:19:54;;;;;;;4.35;2.10;;;;;;;12.35;69.45;97992.00;5068010;28;20585;-65
2022/06/17 02:22:29;;;;;;;4.55;1.95;;;;;;;12.39;69.54;97989.63;5069260;28;20380;-66
2022/06/17 02:25:00;;;;;;;4.63;1.75;;;;;;;12.48;68.62;97990.00;5067682;28;20093;-65
2022/06/17 02:27:28;;;;;;;3.63;2.10;;;;;;;12.38;69.26;97987.94;5069408;28;20435;-65
2022/06/17 02:29:56;;;;;;;2.97;1.50;;;;;;;12.42;68.83;97985.59;5067795;28;20052;-66
2022/06/17 02:32:23;;;;;;;4.22;1.80;;;;;;;12.41;69.07;97978.47;5069253;28;20044;-65
2022/06/17 02:35:05;;;;;;;4.47;2.05;;;;;;;12.36;69.44;97980.06;5068524;28;20044;-65
2022/06/17 02:37:32;;;;;;;4.38;1.90;;;;;;;12.47;68.60;97978.34;5067562;28;20428;-65
2022/06/17 02:40:03;;;;;;;6.55;1.90;;;;;;;12.58;68.37;97976.59;5067461;28;20072;-65
2022/06/17 02:42:35;;;;;;;3.65;1.70;;;;;;;12.63;68.07;97985.88;5067130;28;20148;-65
2022/06/17 02:45:10;;;;;;;8.60;1.88;;;;;;;12.66;68.00;97983.47;5069507;28;20606;-66
2022/06/17 02:47:38;;;;;;;4.53;2.15;;;;;;;12.31;69.75;97974.56;5067927;28;20563;-65
2022/06/17 02:50:06;;;;;;;3.60;1.75;;;;;;;12.30;69.72;97980.22;5069248;28;20041;-65
2022/06/17 02:52:36;;;;;;;3.30;2.00;;;;;;;12.49;68.49;97981.63;5069024;28;20052;-65
2022/06/17 02:55:12;;;;;;;4.55;1.80;;;;;;;12.60;68.07;97993.44;5068272;28;20622;-65
2022/06/17 02:57:40;;;;;;;3.60;1.80;;;;;;;12.51;68.60;97989.50;5067753;28;20416;-66
2022/06/17 03:00:11;;;;;;;3.75;2.08;;;;;;;12.58;68.25;97994.78;5067318;28;20407;-65
2022/06/17 03:02:42;;;;;;;3.28;1.70;;;;;;;12.54;68.47;97986.31;5066627;28;20064;-65
2022/06/17 03:05:23;;;;;;;3.58;1.48;;;;;;;12.44;69.23;97992.41;5067542;28;20044;-65
2022/06/17 03:07:51;;;;;;;3.92;1.90;;;;;;;12.45;68.93;97991.34;5066996;28;20060;-65
2022/06/17 03:10:37;;;;;;;3.72;1.58;;;;;;;12.53;68.81;97983.84;5045729;28;20045;-65
2022/06/17 03:13:16;;;;;;;3.95;1.70;;;;;;;12.43;68.97;97984.50;5065101;28;20055;-65
2022/06/17 03:15:46;;;;;;;3.72;1.90;;;;;;;12.29;69.69;97987.56;5063986;28;20135;-65
2022/06/17 03:18:13;;;;;;;2.72;1.80;;;;;;;12.16;70.06;97998.75;5063836;28;20364;-66
2022/06/17 03:20:43;;;;;;;4.50;2.10;;;;;;;12.10;70.47;97992.44;5064763;28;20048;-66
2022/06/17 03:23:13;;;;;;;3.38;1.83;;;;;;;12.10;70.68;98003.28;5064618;28;20048;-66
2022/06/17 03:25:54;;;;;;;4.53;2.03;;;;;;;12.07;70.73;98001.88;5058035;28;20040;-65
2022/06/17 03:28:48;;;;;;;3.30;1.95;;;;;;;12.03;71.81;98011.56;5065394;28;20048;-66
2022/06/17 03:31:24;;;;;;;5.80;2.00;;;;;;;12.01;70.93;98005.53;5063739;28;20074;-65
2022/06/17 03:33:58;;;;;;;4.53;2.00;;;;;;;11.73;72.41;98011.84;5047097;28;20045;-65
2022/06/17 03:36:30;;;;;;;6.03;2.00;;;;;;;11.63;73.18;98012.47;5046041;28;20044;-65
2022/06/17 03:39:00;;;;;;;4.95;2.95;;;;;;;11.75;72.71;98020.56;5059490;28;20045;-65
2022/06/17 03:41:43;;;;;;;4.15;2.20;;;;;;;11.78;72.58;98015.47;5065789;28;20131;-65
2022/06/17 03:44:14;;;;;;;4.20;2.40;;;;;;;11.80;72.29;98018.75;5066377;28;20032;-65
2022/06/17 03:46:52;;;;;;;5.25;3.05;;;;;;;11.77;72.61;98016.53;5066400;28;20049;-65
2022/06/17 03:49:25;;;;;;;4.85;2.00;;;;;;;11.79;72.43;98019.00;5066491;28;20557;-65
2022/06/17 03:51:58;;;;;;;4.88;2.10;;;;;;;11.94;72.22;98027.41;5065880;28;20633;-66
2022/06/17 03:54:25;;;;;;;4.07;2.00;;;;;;;11.97;71.74;98026.09;5066782;28;20144;-65
2022/06/17 03:56:53;;;;;;;4.95;1.98;;;;;;;11.97;71.90;98032.34;5065836;28;20095;-65
2022/06/17 03:59:28;;;;;;;3.88;2.10;;;;;;;12.02;71.62;98030.81;5066218;28;20051;-64
2022/06/17 04:02:06;;;;;;;5.65;2.22;;;;;;;12.18;71.27;98034.63;5065906;28;20040;-65
2022/06/17 04:04:39;;;;;;;5.45;2.00;;;;;;;12.16;71.22;98031.34;5066245;28;20037;-65
2022/06/17 04:07:06;;;;;;;7.10;1.77;;;;;;;12.09;71.59;98042.38;5066330;28;20478;-65
2022/06/17 04:09:37;;;;;;;3.88;2.25;;;;;;;12.08;71.93;98041.53;5066046;28;20644;-65
2022/06/17 04:12:12;;;;;;;4.35;2.20;;;;;;;12.18;71.29;98050.91;5065532;28;20045;-66
2022/06/17 04:15:12;;;;;;;4.03;2.10;;;;;;;12.27;71.16;98051.34;5066289;28;20487;-65
2022/06/17 04:17:44;;;;;;;4.10;2.30;;;;;;;12.29;71.05;98049.19;5065682;28;20075;-66
2022/06/17 04:20:45;;;;;;;3.88;1.83;;;;;;;12.26;71.47;98045.06;5065648;28;20230;-66
2022/06/17 04:23:26;;;;;;;6.47;2.33;;;;;;;12.29;71.24;98055.44;5065908;28;20479;-66
2022/06/17 04:26:32;;;;;;;3.67;1.85;;;;;;;12.41;70.92;98055.34;5066097;28;20055;-65
2022/06/17 04:29:04;;;;;;;5.25;2.20;;;;;;;12.31;71.81;98061.44;5065715;28;20081;-66
2022/06/17 04:31:33;;;;;;;4.28;2.13;;;;;;;12.17;72.07;98063.66;5065594;28;20074;-66
2022/06/17 04:34:14;;;;;;;4.20;2.10;;;;;;;12.16;72.46;98064.72;5062813;28;20056;-65
2022/06/17 04:36:54;;;;;;;6.88;2.03;;;;;;;12.13;72.65;98067.13;5063987;28;20458;-65
2022/06/17 04:39:36;;;;;;;7.25;2.20;;;;;;;12.27;72.35;98075.78;5062532;28;20041;-65
2022/06/17 04:42:38;;;;;;;3.35;1.80;;;;;;;12.42;72.16;98069.78;5060248;28;20086;-66
2022/06/17 04:45:18;;;;;;;4.25;2.40;;;;;;;12.42;72.46;98078.72;5063042;28;20518;-65
2022/06/17 04:47:45;;;;;;;4.38;2.08;;;;;;;12.47;72.32;98078.00;5063344;28;20047;-66
2022/06/17 04:50:19;;;;;;;5.97;2.03;;;;;;;12.59;71.92;98084.16;5060732;28;20074;-66
2022/06/17 04:52:48;;;;;;;5.55;2.38;;;;;;;12.70;72.05;98084.31;5062695;28;20044;-66
2022/06/17 04:55:25;;;;;;;2.80;1.90;;;;;;;12.74;72.03;98082.75;5064452;28;20549;-66
2022/06/17 04:58:18;;;;;;;3.58;2.15;;;;;;;12.85;71.56;98072.84;5052656;28;20106;-66
2022/06/17 05:00:54;;;;;;;4.20;2.17;;;;;;;12.90;71.04;98070.19;5063178;28;20052;-65
2022/06/17 05:03:57;;;;;;;4.80;2.20;;;;;;;13.02;70.73;98064.69;5043923;28;20053;-66
2022/06/17 05:06:32;;;;;;;4.67;2.10;;;;;;;13.13;70.50;98074.59;5062435;28;20436;-66
2022/06/17 05:09:26;;;;;;;3.38;1.90;;;;;;;13.25;70.73;98073.66;5064899;28;20037;-66
2022/06/17 05:12:03;;;;;;;3.75;1.95;;;;;;;13.43;69.85;98079.88;5060599;28;20511;-66
2022/06/17 05:14:41;;;;;;;4.88;1.90;;;;;;;13.50;70.94;98085.97;5063217;28;20298;-65
2022/06/17 05:17:08;;;;;;;4.40;1.83;;;;;;;13.70;70.49;98087.28;5049864;28;20056;-66
2022/06/17 05:19:36;;;;;;;3.80;2.15;;;;;;;13.80;70.99;98087.41;5061980;28;20111;-66
2022/06/17 05:22:10;;;;;;;3.05;1.80;;;;;;;13.93;71.23;98086.19;5063415;28;20473;-66
2022/06/17 05:24:38;;;;;;;3.70;2.00;;;;;;;14.25;69.42;98085.41;5061936;28;20076;-66
2022/06/17 05:27:04;;;;;;;3.78;1.88;;;;;;;14.42;69.19;98088.00;5063026;28;20400;-65
2022/06/17 05:29:32;;;;;;;5.18;2.20;;;;;;;14.64;67.60;98087.09;5063024;28;20067;-65
2022/06/17 05:32:04;;;;;;;4.93;2.03;;;;;;;14.85;65.61;98086.44;5051076;28;20037;-65
2022/06/17 05:34:37;;;;;;;3.08;1.50;;;;;;;15.15;63.56;98087.72;5062511;28;20389;-65
2022/06/17 05:37:05;;;;;;;3.13;1.50;;;;;;;15.37;59.52;98087.53;5062238;28;20036;-64
2022/06/17 05:39:34;;;;;;;2.88;1.50;;;;;;;15.61;59.34;98095.28;5061165;28;20048;-65
2022/06/17 05:42:01;;;;;;;3.13;1.75;;;;;;;15.82;58.32;98098.09;5062106;28;20078;-65
2022/06/17 05:44:28;;;;;;;2.88;1.40;;;;;;;15.93;57.33;98099.78;5063102;28;20044;-65
2022/06/17 05:47:07;;;;;;;4.90;1.80;;;;;;;16.06;57.06;98108.53;5062498;28;20105;-66
2022/06/17 05:50:00;;;;;;;4.22;1.63;;;;;;;16.25;56.13;98108.84;5063905;28;20384;-66
2022/06/17 05:52:49;;;;;;;3.45;1.50;;;;;;;16.40;56.08;98105.31;5051515;28;20128;-65
2022/06/17 05:55:50;;;;;;;3.72;1.52;;;;;;;16.52;56.06;98116.81;5056760;28;20049;-65
2022/06/17 05:58:17;;;;;;;4.05;1.60;;;;;;;16.65;55.96;98114.63;5061824;28;20048;-66
2022/06/17 06:00:44;;;;;;;3.75;1.48;;;;;;;16.90;54.81;98119.28;5062180;28;20080;-65
2022/06/17 06:03:19;;;;;;;7.10;1.60;;;;;;;17.03;54.11;98120.59;5062639;28;20052;-66
2022/06/17 06:05:46;;;;;;;3.88;1.65;;;;;;;17.14;53.47;98121.44;5062550;28;20067;-66
2022/06/17 06:08:17;;;;;;;4.22;1.50;;;;;;;17.26;52.86;98117.59;5061990;28;20461;-66
2022/06/17 06:10:45;;;;;;;3.92;1.95;;;;;;;17.36;51.83;98116.75;5066040;28;20540;-66
2022/06/17 06:13:16;;;;;;;3.85;1.77;;;;;;;17.49;52.16;98116.16;5065527;28;20041;-67
2022/06/17 06:15:46;;;;;;;2.67;1.30;;;;;;;17.72;51.14;98110.31;5063439;28;20041;-66
2022/06/17 06:18:39;;;;;;;3.25;1.23;;;;;;;17.79;51.52;98108.91;5064302;28;20106;-66
2022/06/17 06:21:13;;;;;;;5.40;1.37;;;;;;;17.93;51.52;98111.03;5036886;28;20052;-67
2022/06/17 06:23:43;;;;;;;4.97;1.58;;;;;;;18.00;52.26;98108.81;5066157;28;20310;-66
2022/06/17 06:26:16;;;;;;;4.00;1.48;;;;;;;18.05;52.32;98095.06;5067184;28;20568;-66
2022/06/17 06:28:46;;;;;;;3.35;1.67;;;;;;;18.13;51.31;98104.63;5065044;28;20049;-67
2022/06/17 06:31:26;;;;;;;2.72;1.50;;;;;;;18.13;51.42;98109.31;5064163;28;20547;-66
2022/06/17 06:33:54;;;;;;;3.88;1.67;;;;;;;18.18;51.94;98104.59;5065586;28;20032;-66
2022/06/17 06:36:23;;;;;;;3.60;1.55;;;;;;;18.24;51.99;98107.31;5067654;28;20105;-67
2022/06/17 06:38:50;;;;;;;4.22;1.77;;;;;;;18.33;51.11;98100.94;5056651;28;20049;-65
2022/06/17 06:41:17;;;;;;;2.35;1.50;;;;;;;18.35;52.07;98111.59;5060838;28;20511;-67
2022/06/17 06:43:44;;;;;;;3.13;1.50;;;;;;;18.47;51.79;98116.75;5066048;28;20200;-66
2022/06/17 06:46:32;;;;;;;2.42;1.27;;;;;;;18.67;51.03;98114.94;5066445;28;20084;-67
2022/06/17 06:48:58;;;;;;;3.78;1.40;;;;;;;18.72;51.13;98120.38;5065528;28;20273;-66
2022/06/17 06:51:25;;;;;;;3.10;1.60;;;;;;;18.75;50.08;98122.53;5066749;28;20044;-66
2022/06/17 06:53:53;;;;;;;3.80;1.58;;;;;;;18.75;49.79;98121.75;5065360;28;20049;-66
2022/06/17 06:56:21;;;;;;;3.58;1.30;;;;;;;18.79;50.76;98114.59;5067220;28;20043;-66
2022/06/17 06:58:47;;;;;;;2.45;1.33;;;;;;;18.88;50.46;98117.50;5068105;28;20411;-66
2022/06/17 07:01:14;;;;;;;3.70;1.70;;;;;;;19.05;50.03;98117.09;5067962;28;20457;-66
2022/06/17 07:03:41;;;;;;;7.03;1.90;;;;;;;19.12;49.62;98123.06;5066986;28;20059;-66
2022/06/17 07:06:07;;;;;;;4.88;1.40;;;;;;;19.23;50.46;98116.38;5066557;28;20399;-67
2022/06/17 07:08:35;;;;;;;3.83;1.60;;;;;;;19.09;49.87;98115.44;5062375;28;20056;-66
2022/06/17 07:11:05;;;;;;;3.70;1.80;;;;;;;19.08;49.88;98119.25;5061954;28;20052;-66
2022/06/17 07:13:35;;;;;;;4.97;1.73;;;;;;;19.20;50.21;98118.88;5066399;28;20037;-65
2022/06/17 07:16:04;;;;;;;7.10;1.80;;;;;;;19.39;50.30;98123.63;5065351;28;20047;-66
2022/06/17 07:18:33;;;;;;;4.95;1.80;;;;;;;19.63;50.36;98118.13;5065112;28;20405;-66
2022/06/17 07:21:08;;;;;;;4.15;1.70;;;;;;;19.74;48.67;98121.53;5068123;28;20515;-66
2022/06/17 07:23:41;;;;;;;4.38;1.95;;;;;;;19.82;48.60;98125.56;5067560;28;20515;-66
2022/06/17 07:26:16;;;;;;;4.68;1.88;;;;;;;19.94;49.65;98114.97;5068121;28;20542;-65
2022/06/17 07:28:44;;;;;;;3.38;1.83;;;;;;;20.17;48.67;98119.91;5065231;28;20231;-66
2022/06/17 07:31:11;;;;;;;4.63;2.10;;;;;;;20.32;47.78;98122.44;5064940;28;20056;-65
2022/06/17 07:33:38;;;;;;;9.27;2.05;;;;;;;20.36;47.37;98123.50;5065363;28;20546;-65
2022/06/17 07:36:06;;;;;;;7.50;1.98;;;;;;;20.50;46.71;98117.22;5078304;28;20340;-65
2022/06/17 07:41:25;;;;;;;3.67;2.13;;;;;;;20.59;46.90;98122.84;5065799;28;20048;-66
2022/06/17 07:43:52;;;;;;;9.82;2.22;;;;;;;20.80;47.18;98134.34;5066441;28;20682;-66
2022/06/17 07:46:21;;;;;;;4.88;1.52;;;;;;;20.88;46.80;98125.44;5067767;28;20048;-66
2022/06/17 07:48:48;;;;;;;5.32;1.75;;;;;;;20.97;46.66;98128.28;5067469;28;20115;-66
2022/06/17 07:51:15;;;;;;;4.75;2.05;;;;;;;20.91;46.76;98130.34;5067988;28;20048;-66
2022/06/17 07:53:42;;;;;;;7.43;2.15;;;;;;;21.07;45.85;98123.75;5063880;28;20055;-65
2022/06/17 07:56:15;;;;;;;6.50;1.77;;;;;;;21.03;46.10;98124.34;5064563;28;20565;-66
2022/06/17 07:58:43;;;;;;;4.32;1.70;;;;;;;21.04;46.75;98127.91;5065389;28;20071;-66
2022/06/17 08:01:11;;;;;;;6.13;1.92;;;;;;;20.99;45.92;98128.00;5065632;28;20111;-66
2022/06/17 08:03:38;;;;;;;5.82;2.08;;;;;;;20.92;45.73;98134.72;5064994;28;20045;-66
2022/06/17 08:06:05;;;;;;;5.43;1.90;;;;;;;21.08;46.12;98136.38;5064443;28;20131;-66
2022/06/17 08:08:33;;;;;;;5.22;2.30;;;;;;;21.15;45.95;98134.88;5062275;28;20098;-66
2022/06/17 08:11:00;;;;;;;9.25;2.17;;;;;;;21.25;45.43;98138.53;5065558;28;20040;-66
2022/06/17 08:13:27;;;;;;;5.05;2.20;;;;;;;21.32;45.29;98130.72;5062709;28;20052;-66
2022/06/17 08:15:57;;;;;;;5.93;2.63;;;;;;;21.34;44.75;98127.66;5064066;28;20052;-66
2022/06/17 08:18:24;;;;;;;4.88;2.08;;;;;;;21.40;43.62;98129.19;5065372;28;20522;-66
2022/06/17 08:20:51;;;;;;;5.57;2.20;;;;;;;21.41;42.94;98139.09;5064789;28;20048;-66
2022/06/17 08:23:19;;;;;;;9.20;2.20;;;;;;;21.16;41.88;98132.94;5064708;28;20059;-66
2022/06/17 08:25:46;;;;;;;4.10;1.95;;;;;;;21.32;43.27;98125.19;5064846;28;20098;-66
2022/06/17 08:28:15;;;;;;;3.95;1.63;;;;;;;21.28;42.46;98130.50;5064209;28;20047;-66
2022/06/17 08:30:51;;;;;;;6.30;2.42;;;;;;;21.33;42.51;98126.03;5064489;28;20055;-66
2022/06/17 08:33:25;;;;;;;4.70;1.92;;;;;;;21.44;42.11;98133.78;5063667;28;20151;-66
2022/06/17 08:36:13;;;;;;;4.38;1.70;;;;;;;21.51;41.38;98125.09;5067524;28;20131;-66
2022/06/17 08:39:04;;;;;;;3.85;1.90;;;;;;;21.66;41.52;98126.75;5053508;28;20052;-66
2022/06/17 08:41:33;;;;;;;3.92;1.85;;;;;;;21.74;39.42;98136.25;5065218;28;20052;-66
2022/06/17 08:44:30;;;;;;;5.57;1.70;;;;;;;21.90;40.40;98128.50;5065207;28;20055;-66
2022/06/17 08:47:25;;;;;;;4.85;1.50;;;;;;;22.51;38.98;98129.34;5064603;28;20419;-66
2022/06/17 08:50:11;;;;;;;3.17;1.58;;;;;;;22.72;38.47;98124.16;5063002;28;20102;-66
2022/06/17 08:52:56;;;;;;;3.28;1.42;;;;;;;22.84;38.72;98126.34;5063764;28;20530;-66
2022/06/17 08:55:47;;;;;;;3.13;1.35;;;;;;;22.64;37.29;98127.69;5064495;28;20557;-66
2022/06/17 08:58:23;;;;;;;4.05;1.63;;;;;;;22.22;38.87;98126.66;5054794;28;20052;-66
2022/06/17 09:01:07;;;;;;;4.85;1.60;;;;;;;21.87;39.40;98129.09;5063787;28;20040;-66
2022/06/17 09:03:53;;;;;;;7.97;1.70;;;;;;;22.05;39.87;98127.34;5065068;28;20362;-67
2022/06/17 09:06:46;;;;;;;4.57;1.75;;;;;;;22.41;39.46;98125.69;5064403;28;20049;-67
2022/06/17 09:09:36;;;;;;;10.32;1.85;;;;;;;22.63;39.98;98129.63;5060862;28;20086;-66
2022/06/17 09:12:30;;;;;;;3.88;1.50;;;;;;;22.61;38.52;98134.63;5063967;28;20052;-66
2022/06/17 09:15:39;;;;;;;5.25;2.00;;;;;;;22.69;37.79;98130.31;5064587;28;20040;-66
2022/06/17 09:18:24;;;;;;;3.15;1.42;;;;;;;22.39;38.17;98122.44;5086690;28;20105;-67
2022/06/17 09:20:58;;;;;;;6.00;1.95;;;;;;;22.44;37.76;98119.53;5064297;28;20369;-67
2022/06/17 09:23:30;;;;;;;6.72;1.50;;;;;;;22.40;38.30;98126.81;5058681;28;20548;-66
2022/06/17 09:25:59;;;;;;;4.65;1.60;;;;;;;22.59;38.97;98128.63;5046229;28;20103;-66
2022/06/17 09:28:40;;;;;;;4.20;1.45;;;;;;;22.88;38.16;98129.31;5046437;28;20150;-66
2022/06/17 09:31:16;;;;;;;5.10;1.50;;;;;;;22.89;36.44;98129.00;5057641;28;20045;-66
2022/06/17 09:34:01;;;;;;;4.53;1.33;;;;;;;22.66;37.31;98128.19;5065917;28;20048;-66
2022/06/17 09:36:33;;;;;;;4.05;1.70;;;;;;;22.83;37.15;98125.53;5064039;28;20523;-66
2022/06/17 09:39:22;;;;;;;4.53;2.53;;;;;;;23.19;37.57;98120.22;5066985;28;20187;-66
2022/06/17 09:42:15;;;;;;;5.13;1.52;;;;;;;22.85;38.70;98126.03;5065928;28;20130;-66
2022/06/17 09:44:54;;;;;;;5.25;1.75;;;;;;;23.06;37.61;98124.69;5070217;28;20033;-65
2022/06/17 09:47:28;;;;;;;3.95;1.30;;;;;;;23.46;36.67;98127.53;5069469;28;20337;-66
2022/06/17 09:50:14;;;;;;;4.50;1.50;;;;;;;23.66;34.76;98133.59;5070607;28;20040;-66
2022/06/17 09:52:47;;;;;;;5.45;1.60;;;;;;;23.61;34.40;98123.50;5066596;28;20491;-66
2022/06/17 09:55:23;;;;;;;4.80;1.30;;;;;;;23.58;34.79;98124.13;5068426;28;20045;-67
2022/06/17 09:57:57;;;;;;;3.25;1.50;;;;;;;23.71;36.11;98129.88;5055600;28;20585;-67
2022/06/17 10:00:35;;;;;;;2.88;1.33;;;;;;;23.78;36.77;98124.69;5067683;28;20462;-67
2022/06/17 10:03:14;;;;;;;3.47;1.45;;;;;;;23.75;35.05;98123.38;5067546;28;20102;-67
2022/06/17 10:05:55;;;;;;;3.35;1.30;;;;;;;23.77;34.99;98123.06;5067490;28;20029;-67
2022/06/17 10:08:53;;;;;;;2.67;1.17;;;;;;;23.72;36.04;98115.72;5066103;28;20040;-67
2022/06/17 10:11:34;;;;;;;3.00;1.58;;;;;;;23.75;35.96;98114.28;5067309;28;20408;-66
2022/06/17 10:14:04;;;;;;;;;;;;;;;23.87;35.97;98111.69;5055643;28;20052;-67
2022/06/17 10:19:49;;;;;;;2.75;1.30;;;;;;;24.20;35.69;98110.47;5067709;28;20048;-67
2022/06/17 10:22:29;;;;;;;2.83;1.35;;;;;;;24.17;34.26;98113.88;5066581;28;20048;-66
2022/06/17 10:24:59;;;;;;;4.05;1.50;;;;;;;24.09;35.53;98118.22;5067355;28;20048;-67
2022/06/17 10:27:57;;;;;;;3.70;1.60;;;;;;;24.37;34.47;98103.31;5067150;28;20051;-66
2022/06/17 10:30:43;;;;;;;4.78;1.30;;;;;;;24.68;34.67;98116.13;5050452;28;20041;-67
2022/06/17 10:33:14;;;;;;;3.40;1.45;;;;;;;24.69;34.21;98117.75;5064814;28;20144;-66
2022/06/17 10:35:42;;;;;;;3.70;1.50;;;;;;;24.42;34.59;98111.44;5067282;28;20048;-66
2022/06/17 10:38:16;;;;;;;4.35;1.30;;;;;;;24.43;35.87;98107.53;5065316;28;20041;-66
2022/06/17 10:40:43;;;;;;;2.67;1.30;;;;;;;24.47;35.55;98108.50;5066647;28;20623;-66
2022/06/17 10:43:14;;;;;;;3.30;1.45;;;;;;;24.60;35.20;98103.94;5053440;28;20052;-66
2022/06/17 10:45:41;;;;;;;;;;;;;;;24.75;34.90;98108.16;5066644;28;20322;-66
2022/06/17 10:48:25;;;;;;;6.35;1.80;;;;;;;24.71;34.52;98107.19;5067954;28;19950;-67
2022/06/17 10:50:51;;;;;;;3.70;1.48;;;;;;;24.67;34.95;98095.13;5068692;28;20139;-66
2022/06/17 10:53:28;;;;;;;4.25;1.38;;;;;;;24.70;34.27;98104.75;5068944;28;20048;-66
2022/06/17 10:56:00;;;;;;;3.25;1.27;;;;;;;24.88;33.63;98097.25;5067538;28;20044;-67
2022/06/17 10:58:29;;;;;;;6.63;1.70;;;;;;;24.84;33.54;98110.09;5068756;28;20498;-66
2022/06/17 11:00:58;;;;;;;6.45;2.13;;;;;;;24.88;33.35;98100.03;5067773;28;20067;-67
2022/06/17 11:03:30;;;;;;;3.45;1.33;;;;;;;25.19;32.14;98107.25;5069140;28;20103;-67
2022/06/17 11:06:06;;;;;;;2.58;1.10;;;;;;;25.31;31.66;98103.78;5067889;28;20396;-67
2022/06/17 11:08:39;;;;;;;3.92;1.30;;;;;;;24.92;31.26;98098.22;5064796;28;20048;-67
2022/06/17 11:13:56;;;;;;;3.03;1.40;;;;;;;25.35;30.14;98095.63;5065019;28;20045;-66
2022/06/17 11:16:26;;;;;;;4.93;1.75;;;;;;;25.33;29.50;98093.19;5066650;28;20044;-67
2022/06/17 11:18:59;;;;;;;3.15;1.30;;;;;;;25.42;30.10;98095.91;5066309;28;20044;-67
2022/06/17 11:21:31;;;;;;;3.08;1.17;;;;;;;25.69;28.63;98096.63;5065727;28;20048;-67
2022/06/17 11:23:59;;;;;;;4.20;1.25;;;;;;;25.81;28.53;98091.19;5065882;28;20044;-67
2022/06/17 11:26:30;;;;;;;2.92;1.00;;;;;;;25.61;28.62;98100.25;5067689;28;20052;-67
2022/06/17 11:29:17;;;;;;;4.78;1.20;;;;;;;25.64;29.46;98094.03;5068532;28;20119;-67
2022/06/17 11:31:49;;;;;;;3.85;1.10;;;;;;;25.72;28.83;98107.03;5067127;28;20040;-67
2022/06/17 11:34:24;;;;;;;2.85;1.30;;;;;;;25.91;27.84;98091.94;5068417;28;20048;-67
2022/06/17 11:37:04;;;;;;;6.03;1.75;;;;;;;25.98;28.50;98092.19;5048878;28;20088;-67
2022/06/17 11:39:34;;;;;;;3.23;1.53;;;;;;;26.19;27.47;98078.31;5068325;28;20040;-66
2022/06/17 11:42:16;;;;;;;2.72;1.10;;;;;;;26.33;27.77;98083.63;5067095;28;20139;-66
2022/06/17 11:45:17;;;;;;;3.10;1.08;;;;;;;26.41;27.59;98081.09;5067255;28;20048;-67
2022/06/17 11:47:49;;;;;;;3.42;1.00;;;;;;;26.68;27.03;98087.25;5066020;28;20049;-67
2022/06/17 11:50:37;;;;;;;5.30;1.20;;;;;;;26.93;26.44;98082.56;5067118;28;20040;-67
2022/06/17 11:53:08;;;;;;;2.38;1.00;;;;;;;27.22;24.94;98075.22;5067200;28;20443;-66
2022/06/17 11:55:47;;;;;;;3.15;1.02;;;;;;;27.11;24.22;98071.25;5068174;28;20033;-66
2022/06/17 11:58:34;;;;;;;2.28;0.82;;;;;;;26.66;24.39;98061.75;5067261;28;20048;-66
2022/06/17 12:01:13;;;;;;;3.83;1.20;;;;;;;26.73;25.26;98059.25;5066913;28;20094;-68
2022/06/17 12:03:44;;;;;;;3.20;1.10;;;;;;;26.77;25.41;98062.13;5067869;28;20067;-67
2022/06/17 12:06:28;;;;;;;2.95;0.90;;;;;;;26.76;25.55;98055.78;5066274;28;20044;-66
2022/06/17 12:09:13;;;;;;;2.35;1.00;;;;;;;26.89;25.59;98048.28;5066748;28;20056;-67
2022/06/17 12:11:52;;;;;;;2.38;1.02;;;;;;;26.98;25.23;98048.22;5066932;28;20044;-66
2022/06/17 12:14:26;;;;;;;1.88;0.90;;;;;;;27.11;25.10;98052.63;5065841;28;20579;-66
2022/06/17 12:16:55;;;;;;;2.55;0.93;;;;;;;27.20;24.55;98044.16;5064154;28;20117;-67
2022/06/17 12:19:42;;;;;;;2.10;1.00;;;;;;;27.27;25.00;98038.84;5065446;28;20051;-67